Flight Track Log - Related Links

Times and Time Zones

All times are in EDT time to prevent confusion due to time zone crossing. See the N631AD flight status page for this flight to view local times or setup timezone preferences in your user account.

Time Position Orientation Groundspeed Altitude Reporting Facility
EDT Latitude Longitude Course Direction KTS MPH feet Rate Location/Type
Mon 12:55:41 PM 42.5417 -83.1617 24° Northeast 91 105 1,000  Level Cleveland Center
Mon 12:56:12 PM 42.5544 -83.1539 284° West 105 121 1,300 593 Climbing Cleveland Center
Mon 12:57:12 PM 42.5619 -83.1936 286° West 125 144 1,900 694 Climbing Cleveland Center
Mon 12:58:13 PM 42.5714 -83.2392 291° West 132 152 2,700 541 Climbing Cleveland Center
Mon 12:59:14 PM 42.5828 -83.2792 276° West 116 133 3,000 492 Climbing Cleveland Center
Mon 01:00:15 PM 42.5861 -83.3217 255° West 105 121 3,700 590 Climbing Cleveland Center
Mon 01:01:16 PM 42.5789 -83.3578 264° West 94 108 4,200 541 Climbing Cleveland Center
Mon 01:02:17 PM 42.5758 -83.3944 245° Southwest 102 117 4,800 393 Climbing Cleveland Center
Mon 01:03:18 PM 42.5625 -83.4333 243° Southwest 110 127 5,000 98 Climbing Cleveland Center
Mon 01:04:19 PM 42.5469 -83.4747 244° Southwest 127 146 5,000  Level Cleveland Center
Mon 01:05:20 PM 42.5289 -83.5247 240° Southwest 144 166 5,000  Level Cleveland Center
Mon 01:06:20 PM 42.5111 -83.5661 243° Southwest 134 154 5,000  Level Cleveland Center
Mon 01:07:21 PM 42.4933 -83.6133 243° Southwest 135 155 5,000 49 Level Cleveland Center
Mon 01:08:22 PM 42.4775 -83.6547 244° Southwest 133 153 5,100 443 Climbing Cleveland Center
Mon 01:09:23 PM 42.4639 -83.6933 249° West 96 110 5,900 353 Climbing Cleveland Center
Mon 01:10:55 PM 42.4500 -83.7425 253° West 111 128 6,000 45 Climbing FAA TRACON
Mon 01:11:36 PM 42.4433 -83.7725 253° West 130 150 6,000  Level FAA TRACON
Mon 01:12:16 PM 42.4361 -83.8042 252° West 125 144 6,000  Level FAA TRACON
Mon 01:12:55 PM 42.4297 -83.8314 253° West 122 140 6,000  Level FAA TRACON
Mon 01:13:35 PM 42.4219 -83.8650 254° West 124 143 6,000  Level FAA TRACON
Mon 01:14:16 PM 42.4156 -83.8950 253° West 128 147 6,000 74 Level FAA TRACON
Mon 01:14:56 PM 42.4081 -83.9272 253° West 128 147 6,100 76 Climbing FAA TRACON
Mon 01:15:35 PM 42.4011 -83.9578 252° West 127 146 6,100 -75 Level FAA TRACON
Mon 01:16:16 PM 42.3933 -83.9900 253° West 129 148 6,000 -74 Descending FAA TRACON
Mon 01:16:56 PM 42.3867 -84.0203 253° West 130 150 6,000  Level FAA TRACON
Mon 01:17:35 PM 42.3806 -84.0481 252° West 130 150 6,000  Level FAA TRACON
Mon 01:18:16 PM 42.3719 -84.0839 254° West 130 150 6,000  Level FAA TRACON
Mon 01:18:56 PM 42.3653 -84.1144 253° West 131 151 6,000  Level FAA TRACON
Mon 01:19:36 PM 42.3583 -84.1458 253° West 131 151 6,000  Level FAA TRACON
Mon 01:20:15 PM 42.3514 -84.1758 251° West 129 148 6,000  Level FAA TRACON
Mon 01:20:56 PM 42.3433 -84.2081 253° West 130 150 6,000  Level FAA TRACON
Mon 01:21:36 PM 42.3364 -84.2389 254° West 130 150 6,000  Level FAA TRACON
Mon 01:22:15 PM 42.3300 -84.2683 253° West 128 147 6,000  Level FAA TRACON
Mon 01:22:56 PM 42.3228 -84.3000 251° West 127 146 6,000  Level FAA TRACON
Mon 01:23:36 PM 42.3153 -84.3303 252° West 127 146 6,000  Level FAA TRACON
Mon 01:24:16 PM 42.3083 -84.3592 253° West 126 145 6,000  Level FAA TRACON
Mon 01:24:55 PM 42.3011 -84.3914 252° West 128 147 6,000  Level FAA TRACON
Mon 01:25:36 PM 42.2936 -84.4219 254° West 128 147 6,000  Level FAA TRACON
Mon 01:26:17 PM 42.2875 -84.4514 253° West 126 145 6,000  Level FAA TRACON
Mon 01:26:57 PM 42.2803 -84.4828 251° West 126 145 6,000  Level FAA TRACON
Mon 01:27:36 PM 42.2725 -84.5125 254° West 126 145 6,000  Level FAA TRACON
Mon 01:28:17 PM 42.2669 -84.5386 253° West 127 146 6,000  Level FAA TRACON
Mon 01:31:17 PM 42.2342 -84.6800 251° West 127 146 6,000  Level FAA TRACON
Mon 01:31:56 PM 42.2267 -84.7100 253° West 129 148 6,000  Level FAA TRACON
Mon 01:32:36 PM 42.2197 -84.7408 251° West 128 147 6,000  Level FAA TRACON
Mon 01:33:16 PM 42.2125 -84.7689 252° West 127 146 6,000  Level FAA TRACON
Mon 01:33:56 PM 42.2047 -84.8008 253° West 129 148 6,000  Level FAA TRACON
Mon 01:34:36 PM 42.1972 -84.8331 252° West 130 150 6,000  Level FAA TRACON
Mon 01:35:16 PM 42.1911 -84.8583 248° West 130 150 6,000 -75 Level FAA TRACON
Mon 01:35:56 PM 42.1822 -84.8878 250° West 130 150 5,900 -76 Descending FAA TRACON
Mon 01:36:35 PM 42.1736 -84.9194 252° West 129 148 5,900  Level FAA TRACON
Mon 01:37:16 PM 42.1658 -84.9508 251° West 130 150 5,900 74 Level FAA TRACON
Mon 01:37:56 PM 42.1581 -84.9819 255° West 130 150 6,000  Climbing FAA TRACON
Mon 01:38:36 PM 42.1514 -85.0150 250° West 132 152 5,900 -75 Descending FAA TRACON
Mon 01:39:16 PM 42.1433 -85.0450 249° West 128 147 5,900  Level FAA TRACON
Mon 01:39:56 PM 42.1342 -85.0767 252° West 129 148 5,900  Level FAA TRACON
Mon 01:40:36 PM 42.1269 -85.1067 252° West 129 148 5,900 Level FAA TRACON
Mon 02:18:27 PM 41.7000 -86.8500 246° West 123 142 6,000 Climbing Chicago TRACON
Mon 02:19:27 PM 41.6833 -86.9000 236° Southwest 128 147 6,000  Level Chicago TRACON
Mon 02:20:27 PM 41.6667 -86.9333 270° West 132 152 6,000  Level Chicago TRACON
Mon 02:21:27 PM 41.6667 -86.9833 236° Southwest 126 145 6,000  Level Chicago TRACON
Mon 02:22:27 PM 41.6500 -87.0167 246° West 127 146 6,000  Level Chicago TRACON
Mon 02:23:27 PM 41.6333 -87.0667 270° West 124 143 6,000  Level Chicago TRACON
Mon 02:24:28 PM 41.6333 -87.1167 246° West 127 146 6,000 -236 Level Chicago TRACON
Mon 02:25:34 PM 41.6167 -87.1667 270° West 143 165 5,500 -450 Descending Chicago TRACON
Mon 02:26:28 PM 41.6167 -87.2167 246° West 153 176 5,100 -474 Descending Chicago TRACON
Mon 02:27:28 PM 41.6000 -87.2667 252° West 156 180 4,600 -500 Descending Chicago TRACON
Mon 02:28:28 PM 41.5833 -87.3333 270° West 155 178 4,100 -286 Descending Chicago TRACON
Mon 02:29:34 PM 41.5833 -87.3833 246° West 138 159 4,000 -50 Descending Chicago TRACON
Mon 02:30:28 PM 41.5667 -87.4333 246° West 134 154 4,000  Level Chicago TRACON

Login

Don't have an account? Register now (free) for customized features, flight alerts, and more!